Time;durP1;ratioP1;P1;durP2;ratioP2;P2;SDS_P1;SDS_P2;PMS_P1;PMS_P2;Temp;Humidity;BMP_temperature;BMP_pressure;BME280_temperature;BME280_humidity;BME280_pressure;Samples;Min_cycle;Max_cycle;Signal;HPM_P1;HPM_P2
2024/02/24 00:00:26;;;;;;;0.00;0.00;;;;;;;5.76;67.04;98154.19;7358129;19;20018;-63
2024/02/24 00:02:52;;;;;;;0.00;0.00;;;;;;;5.76;67.02;98161.13;7353139;19;20038;-63
2024/02/24 00:05:17;;;;;;;0.00;0.00;;;;;;;5.75;66.95;98157.72;7362917;19;20020;-63
2024/02/24 00:07:42;;;;;;;0.10;0.10;;;;;;;5.73;67.28;98159.53;7363461;19;20015;-64
2024/02/24 00:10:08;;;;;;;0.00;0.00;;;;;;;5.70;67.22;98160.50;7361195;19;20023;-63
2024/02/24 00:12:34;;;;;;;0.10;0.10;;;;;;;5.71;67.58;98166.50;7362584;19;20010;-63
2024/02/24 00:14:59;;;;;;;0.10;0.10;;;;;;;5.70;67.28;98165.69;7363859;19;20014;-62
2024/02/24 00:17:25;;;;;;;0.10;0.10;;;;;;;5.71;66.87;98171.69;7364937;19;20007;-63
2024/02/24 00:19:50;;;;;;;0.00;0.00;;;;;;;5.67;67.26;98162.38;7364272;19;20045;-63
2024/02/24 00:22:16;;;;;;;0.10;0.10;;;;;;;5.69;67.17;98165.75;7351855;19;20027;-62
2024/02/24 00:24:41;;;;;;;0.00;0.00;;;;;;;5.68;66.89;98164.06;7363372;19;20019;-63
2024/02/24 00:27:06;;;;;;;0.10;0.10;;;;;;;5.65;67.32;98161.59;7361834;19;20391;-62
2024/02/24 00:29:32;;;;;;;0.10;0.10;;;;;;;5.64;67.45;98165.94;7363893;19;20014;-62
2024/02/24 00:31:57;;;;;;;0.10;0.10;;;;;;;5.63;67.37;98172.03;7362850;19;20025;-62
2024/02/24 00:34:22;;;;;;;0.10;0.10;;;;;;;5.63;67.31;98173.78;7371554;19;20018;-62
2024/02/24 00:36:48;;;;;;;0.00;0.00;;;;;;;5.62;67.33;98172.09;7364995;19;20530;-63
2024/02/24 00:39:13;;;;;;;0.10;0.10;;;;;;;5.60;67.57;98173.91;7372246;19;20010;-62
2024/02/24 00:41:39;;;;;;;0.10;0.10;;;;;;;5.59;66.93;98177.41;7367466;19;20038;-63
2024/02/24 00:44:05;;;;;;;0.10;0.10;;;;;;;5.57;67.68;98182.63;7370540;19;20010;-63
2024/02/24 00:46:30;;;;;;;0.10;0.10;;;;;;;5.56;67.73;98187.88;7362190;19;20018;-63
2024/02/24 00:48:56;;;;;;;0.10;0.10;;;;;;;5.55;67.84;98181.03;7371151;19;20007;-63
2024/02/24 00:51:21;;;;;;;0.10;0.10;;;;;;;5.55;67.76;98186.22;7367595;19;20018;-63
2024/02/24 00:53:47;;;;;;;0.10;0.10;;;;;;;5.53;68.09;98195.78;7369417;19;20006;-63
2024/02/24 00:56:13;;;;;;;0.10;0.10;;;;;;;5.53;67.84;98194.03;7365870;19;20026;-63
2024/02/24 00:58:38;;;;;;;0.10;0.10;;;;;;;5.52;68.28;98199.28;7367321;19;20639;-62
2024/02/24 01:01:03;;;;;;;0.10;0.10;;;;;;;5.51;68.46;98195.84;7367096;19;20011;-62
2024/02/24 01:03:29;;;;;;;0.10;0.10;;;;;;;5.52;68.11;98196.69;7363824;19;20105;-63
2024/02/24 01:05:54;;;;;;;0.10;0.10;;;;;;;5.51;67.96;98198.44;7363522;19;20013;-62
2024/02/24 01:08:20;;;;;;;0.00;0.00;;;;;;;5.51;68.21;98210.53;7368966;19;20006;-62
2024/02/24 01:10:45;;;;;;;0.05;0.05;;;;;;;5.46;68.27;98196.03;7354626;19;20006;-62
2024/02/24 01:13:11;;;;;;;0.10;0.10;;;;;;;5.53;68.26;98208.75;7364411;19;20037;-62
2024/02/24 01:15:36;;;;;;;0.00;0.00;;;;;;;5.55;68.38;98212.09;7330387;19;20011;-63
2024/02/24 01:18:02;;;;;;;0.00;0.00;;;;;;;5.57;68.05;98215.44;7370577;19;20014;-63
2024/02/24 01:20:29;;;;;;;0.00;0.00;;;;;;;5.56;68.17;98214.59;7368488;19;20006;-63
2024/02/24 01:22:57;;;;;;;0.10;0.10;;;;;;;5.61;68.13;98222.19;7368523;19;20506;-62
2024/02/24 01:25:23;;;;;;;0.00;0.00;;;;;;;5.65;68.47;98218.56;7369763;19;20797;-63
2024/02/24 01:27:49;;;;;;;0.10;0.10;;;;;;;5.66;68.36;98217.66;7368558;19;20030;-63
2024/02/24 01:30:15;;;;;;;0.10;0.10;;;;;;;5.70;68.33;98221.78;7363431;19;20022;-62
2024/02/24 01:32:41;;;;;;;0.10;0.10;;;;;;;5.72;68.16;98220.81;7363235;19;20373;-63
2024/02/24 01:35:07;;;;;;;0.00;0.00;;;;;;;5.73;68.33;98217.34;7367779;19;20016;-62
2024/02/24 01:37:33;;;;;;;0.10;0.10;;;;;;;5.75;68.54;98219.84;7370619;19;20364;-63
2024/02/24 01:39:58;;;;;;;0.10;0.10;;;;;;;5.77;68.63;98223.19;7363328;19;20018;-62
2024/02/24 01:42:24;;;;;;;0.10;0.10;;;;;;;5.78;68.70;98237.88;7364207;19;20411;-63
2024/02/24 01:44:50;;;;;;;0.10;0.10;;;;;;;5.76;68.76;98236.22;7368307;19;20013;-63
2024/02/24 01:47:18;;;;;;;0.10;0.10;;;;;;;5.78;69.10;98253.41;7364789;19;20014;-63
2024/02/24 01:49:44;;;;;;;0.10;0.10;;;;;;;5.78;69.29;98245.63;7367534;19;20014;-63
2024/02/24 01:52:10;;;;;;;0.10;0.10;;;;;;;5.77;69.43;98254.28;7366951;19;20018;-63
2024/02/24 01:54:36;;;;;;;0.10;0.10;;;;;;;5.67;69.78;98238.28;7369227;19;20341;-63
2024/02/24 01:57:03;;;;;;;0.10;0.10;;;;;;;5.75;69.82;98245.75;7363004;19;20038;-63
2024/02/24 01:59:28;;;;;;;0.10;0.10;;;;;;;5.77;70.12;98245.66;7366800;19;20010;-63
2024/02/24 02:01:54;;;;;;;0.10;0.10;;;;;;;5.76;70.54;98250.00;7362276;19;20011;-63
2024/02/24 02:04:19;;;;;;;0.00;0.00;;;;;;;5.72;70.13;98256.22;7366283;19;20010;-63
2024/02/24 02:06:45;;;;;;;0.10;0.10;;;;;;;5.68;70.61;98241.75;7368029;19;20403;-63
2024/02/24 02:09:11;;;;;;;0.10;0.10;;;;;;;5.80;70.76;98261.94;7367209;19;20406;-63
2024/02/24 02:11:36;;;;;;;0.10;0.10;;;;;;;5.82;70.25;98262.69;7363931;19;20025;-63
2024/02/24 02:14:01;;;;;;;0.10;0.10;;;;;;;5.84;70.42;98253.13;7365305;19;20006;-63
2024/02/24 02:16:27;;;;;;;0.10;0.10;;;;;;;5.87;70.59;98252.16;7365358;19;20007;-63
2024/02/24 02:18:52;;;;;;;0.10;0.10;;;;;;;5.82;70.51;98249.75;7360746;19;20018;-63
2024/02/24 02:21:19;;;;;;;0.00;0.00;;;;;;;5.92;70.13;98247.63;7369417;19;20017;-63
2024/02/24 02:23:45;;;;;;;0.10;0.10;;;;;;;5.89;70.55;98242.56;7365388;19;20035;-63
2024/02/24 02:26:13;;;;;;;0.10;0.10;;;;;;;5.91;70.38;98251.13;7367492;19;20447;-63
2024/02/24 02:28:39;;;;;;;0.10;0.10;;;;;;;5.90;70.47;98255.44;7365079;19;20018;-63
2024/02/24 02:31:04;;;;;;;0.00;0.00;;;;;;;5.87;70.56;98255.56;7364826;19;20045;-63
2024/02/24 02:33:29;;;;;;;0.10;0.10;;;;;;;5.85;70.31;98260.00;7364783;19;20006;-63
2024/02/24 02:35:55;;;;;;;0.00;0.00;;;;;;;5.83;70.43;98254.03;7363113;19;20019;-63
2024/02/24 02:38:20;;;;;;;0.00;0.00;;;;;;;5.80;70.50;98261.94;7365082;19;20764;-63
2024/02/24 02:40:46;;;;;;;0.00;0.00;;;;;;;5.66;70.67;98243.53;7367872;19;20070;-63
2024/02/24 02:43:11;;;;;;;0.00;0.00;;;;;;;5.72;70.87;98264.84;7364635;19;20015;-63
2024/02/24 02:45:37;;;;;;;0.00;0.00;;;;;;;5.68;70.96;98268.47;7360959;19;20026;-63
2024/02/24 02:48:03;;;;;;;0.10;0.10;;;;;;;5.64;70.79;98268.66;7367999;19;20010;-63
2024/02/24 02:50:28;;;;;;;0.10;0.10;;;;;;;5.62;71.15;98263.53;7363488;19;20543;-63
2024/02/24 02:52:54;;;;;;;0.00;0.00;;;;;;;5.55;71.10;98261.28;7366262;19;20010;-63
2024/02/24 02:55:20;;;;;;;0.00;0.00;;;;;;;5.55;70.96;98274.22;7366563;19;20016;-63
2024/02/24 02:57:46;;;;;;;0.00;0.00;;;;;;;5.50;71.30;98269.22;7364424;19;20046;-63
2024/02/24 03:00:12;;;;;;;0.00;0.00;;;;;;;5.47;71.25;98275.38;7366431;19;20816;-63
2024/02/24 03:02:37;;;;;;;0.10;0.10;;;;;;;5.44;71.50;98277.25;7368465;19;20010;-63
2024/02/24 03:05:03;;;;;;;0.10;0.10;;;;;;;5.40;71.61;98276.53;7359369;19;20002;-63
2024/02/24 03:07:29;;;;;;;0.10;0.10;;;;;;;5.38;71.57;98280.09;7365408;19;20068;-63
2024/02/24 03:09:54;;;;;;;0.10;0.10;;;;;;;5.35;71.36;98283.63;7367430;19;20018;-63
2024/02/24 03:12:20;;;;;;;0.10;0.10;;;;;;;5.33;71.50;98280.28;7365386;19;20010;-63
2024/02/24 03:14:45;;;;;;;0.10;0.10;;;;;;;5.29;71.68;98277.88;7365745;19;20018;-63
2024/02/24 03:17:11;;;;;;;0.00;0.00;;;;;;;5.29;71.61;98289.06;7366785;19;20011;-65
2024/02/24 03:19:39;;;;;;;0.00;0.00;;;;;;;5.28;71.90;98292.56;7361024;19;20015;-63
2024/02/24 03:22:05;;;;;;;0.10;0.10;;;;;;;5.26;71.79;98296.09;7363093;19;19998;-63
2024/02/24 03:24:30;;;;;;;0.00;0.00;;;;;;;5.26;72.28;98299.53;7365689;19;20017;-63
2024/02/24 03:26:55;;;;;;;0.10;0.10;;;;;;;5.21;72.12;98291.09;7364694;19;20376;-63
2024/02/24 03:29:21;;;;;;;0.10;0.10;;;;;;;5.26;71.79;98302.09;7357625;19;20014;-62
2024/02/24 03:31:46;;;;;;;0.10;0.10;;;;;;;5.14;72.26;98289.66;7353829;19;20022;-63
2024/02/24 03:34:12;;;;;;;0.05;0.05;;;;;;;5.28;71.86;98315.84;7366518;19;20026;-63
2024/02/24 03:36:37;;;;;;;0.00;0.00;;;;;;;5.28;71.88;98315.84;7361397;19;20685;-63
2024/02/24 03:39:03;;;;;;;0.10;0.10;;;;;;;5.28;72.08;98326.19;7366992;19;20022;-63
2024/02/24 03:41:32;;;;;;;0.10;0.10;;;;;;;5.31;71.86;98335.56;7363518;19;20038;-65
2024/02/24 03:43:58;;;;;;;0.10;0.10;;;;;;;5.29;72.18;98335.63;7363407;19;20018;-63
2024/02/24 03:46:23;;;;;;;0.00;0.00;;;;;;;5.28;71.86;98339.13;7362846;19;20017;-63
2024/02/24 03:48:50;;;;;;;0.10;0.10;;;;;;;5.34;72.39;98348.41;7365229;19;20055;-63
2024/02/24 03:51:16;;;;;;;0.00;0.00;;;;;;;5.34;72.11;98349.25;7360665;19;20003;-62
2024/02/24 03:53:41;;;;;;;0.10;0.10;;;;;;;5.38;72.04;98357.72;7365352;19;20041;-63
2024/02/24 03:56:07;;;;;;;0.10;0.10;;;;;;;5.26;72.22;98338.34;7361857;19;20014;-63
2024/02/24 03:58:32;;;;;;;0.10;0.10;;;;;;;5.42;72.29;98357.56;7359663;19;20010;-62
2024/02/24 04:00:58;;;;;;;0.10;0.10;;;;;;;5.43;72.21;98351.47;7365165;19;20006;-63
2024/02/24 04:03:23;;;;;;;0.10;0.10;;;;;;;5.47;71.86;98358.22;7357494;19;20015;-63
2024/02/24 04:05:49;;;;;;;0.10;0.10;;;;;;;5.52;71.91;98364.94;7359104;19;20041;-62
2024/02/24 04:08:14;;;;;;;0.10;0.10;;;;;;;5.54;72.27;98368.31;7363906;19;20021;-62
2024/02/24 04:10:44;;;;;;;0.00;0.00;;;;;;;5.59;71.82;98371.56;7364170;19;20014;-63
2024/02/24 04:13:09;;;;;;;0.10;0.10;;;;;;;5.61;72.23;98377.50;7365811;19;20033;-63
2024/02/24 04:15:35;;;;;;;0.05;0.05;;;;;;;5.60;71.95;98375.84;7365444;19;20014;-63
2024/02/24 04:18:00;;;;;;;0.00;0.00;;;;;;;5.66;71.85;98385.94;7340409;19;20031;-62
2024/02/24 04:20:26;;;;;;;0.05;0.05;;;;;;;5.68;72.30;98395.34;7355245;19;20016;-63
2024/02/24 04:22:51;;;;;;;0.10;0.10;;;;;;;5.71;72.05;98399.53;7365046;19;20458;-63
2024/02/24 04:25:17;;;;;;;0.10;0.10;;;;;;;5.73;71.97;98408.13;7364745;19;20561;-63
2024/02/24 04:27:42;;;;;;;0.10;0.10;;;;;;;5.76;72.25;98407.97;7363624;19;20010;-63
2024/02/24 04:30:08;;;;;;;0.10;0.10;;;;;;;5.78;71.97;98408.78;7361960;19;20018;-63
2024/02/24 04:32:33;;;;;;;0.00;0.00;;;;;;;5.68;71.60;98395.34;7365140;19;20773;-63
2024/02/24 04:34:58;;;;;;;0.10;0.10;;;;;;;5.82;72.10;98409.47;7353612;19;20010;-62
2024/02/24 04:37:24;;;;;;;0.10;0.10;;;;;;;5.86;72.10;98422.25;7364141;19;20017;-63
2024/02/24 04:39:50;;;;;;;0.08;0.08;;;;;;;5.86;72.07;98424.00;7362471;19;20513;-62
2024/02/24 04:42:15;;;;;;;0.08;0.08;;;;;;;5.70;71.93;98397.88;7360263;19;20010;-62
2024/02/24 04:44:41;;;;;;;0.10;0.10;;;;;;;5.92;71.76;98429.78;7365546;19;20022;-63
2024/02/24 04:47:06;;;;;;;0.10;0.10;;;;;;;5.95;71.75;98445.22;7362935;19;20111;-63
2024/02/24 04:49:32;;;;;;;0.00;0.00;;;;;;;5.96;71.55;98446.91;7361477;19;20025;-63
2024/02/24 04:51:57;;;;;;;0.05;0.05;;;;;;;5.99;71.46;98451.13;7364292;19;20011;-62
2024/02/24 04:54:23;;;;;;;0.00;0.00;;;;;;;6.01;71.57;98451.06;7352570;19;20014;-63
2024/02/24 04:56:49;;;;;;;0.00;0.00;;;;;;;6.01;71.62;98459.69;7361389;19;20007;-62
2024/02/24 04:59:14;;;;;;;0.10;0.10;;;;;;;6.02;71.49;98452.75;7361878;19;20010;-62
2024/02/24 05:01:40;;;;;;;0.00;0.00;;;;;;;6.03;71.89;98467.38;7356845;19;20093;-64
2024/02/24 05:04:05;;;;;;;0.10;0.10;;;;;;;6.02;71.76;98460.50;7364869;19;20502;-62
2024/02/24 05:06:30;;;;;;;0.10;0.10;;;;;;;6.05;71.76;98465.59;7358776;19;20021;-63
2024/02/24 05:08:56;;;;;;;0.10;0.10;;;;;;;5.92;71.74;98445.34;7364000;19;20018;-63
2024/02/24 05:11:21;;;;;;;0.10;0.10;;;;;;;6.06;71.83;98477.63;7364265;19;20925;-63
2024/02/24 05:13:47;;;;;;;0.10;0.10;;;;;;;6.06;71.73;98472.44;7368168;19;20006;-63
2024/02/24 05:16:13;;;;;;;0.10;0.10;;;;;;;6.07;71.73;98479.31;7365156;19;20086;-62
2024/02/24 05:18:39;;;;;;;0.10;0.10;;;;;;;6.07;71.43;98484.50;7370467;19;20011;-62
2024/02/24 05:21:04;;;;;;;0.10;0.10;;;;;;;6.09;71.81;98490.47;7372834;19;20030;-62
2024/02/24 05:23:30;;;;;;;0.10;0.10;;;;;;;6.09;71.82;98485.28;7367794;19;20063;-62
2024/02/24 05:25:55;;;;;;;0.00;0.00;;;;;;;6.10;71.78;98489.56;7371279;19;20117;-62
2024/02/24 05:28:21;;;;;;;0.00;0.00;;;;;;;6.10;71.50;98500.78;7365754;19;20459;-62
2024/02/24 05:30:47;;;;;;;0.00;0.00;;;;;;;6.12;71.45;98511.06;7369075;19;20018;-62
2024/02/24 05:33:13;;;;;;;0.10;0.10;;;;;;;6.07;71.56;98502.63;7365957;19;20536;-63
2024/02/24 05:35:39;;;;;;;0.10;0.10;;;;;;;6.11;71.45;98501.63;7370216;19;20018;-63
2024/02/24 05:38:04;;;;;;;0.10;0.10;;;;;;;6.12;71.60;98505.88;7368649;19;20037;-62
2024/02/24 05:40:29;;;;;;;0.00;0.00;;;;;;;6.12;71.35;98518.84;7369381;19;20773;-63
2024/02/24 05:42:55;;;;;;;0.10;0.10;;;;;;;6.12;71.70;98513.66;7369032;19;20474;-63
2024/02/24 05:45:20;;;;;;;0.00;0.00;;;;;;;6.14;71.41;98514.47;7368272;19;20034;-63
2024/02/24 05:47:46;;;;;;;0.10;0.10;;;;;;;6.13;71.36;98525.69;7369031;19;20002;-62
2024/02/24 05:50:11;;;;;;;0.10;0.10;;;;;;;6.13;71.50;98523.09;7367015;19;20033;-62
2024/02/24 05:52:37;;;;;;;0.10;0.10;;;;;;;6.11;71.15;98518.00;7367400;19;20010;-62
2024/02/24 05:55:04;;;;;;;0.00;0.00;;;;;;;6.11;71.53;98527.53;7372790;19;20356;-62
2024/02/24 05:57:30;;;;;;;;;;;;;;;6.14;70.75;98525.66;7358809;19;20781;-63
2024/02/24 05:59:55;;;;;;;0.03;0.03;;;;;;;6.09;71.26;98530.19;7371994;19;19922;-62
2024/02/24 06:02:21;;;;;;;0.10;0.10;;;;;;;6.09;71.25;98532.78;7366593;19;20447;-62
2024/02/24 06:04:46;;;;;;;0.10;0.10;;;;;;;6.08;71.46;98530.22;7370457;19;20034;-62
2024/02/24 06:07:11;;;;;;;0.10;0.10;;;;;;;6.08;71.52;98522.44;7365010;19;20014;-62
2024/02/24 06:09:37;;;;;;;0.10;0.10;;;;;;;6.07;71.76;98536.31;7367083;19;20438;-62
2024/02/24 06:12:03;;;;;;;0.10;0.10;;;;;;;6.07;71.56;98547.50;7367209;19;20617;-62
2024/02/24 06:14:29;;;;;;;0.10;0.10;;;;;;;6.08;72.09;98540.59;7366453;19;20046;-62
2024/02/24 06:16:54;;;;;;;0.10;0.10;;;;;;;6.10;71.98;98543.97;7365459;19;20006;-65
2024/02/24 06:19:20;;;;;;;0.03;0.03;;;;;;;6.11;71.67;98548.25;7364861;19;20033;-62
2024/02/24 06:21:45;;;;;;;0.10;0.10;;;;;;;6.12;71.73;98547.34;7369069;19;20049;-62
2024/02/24 06:24:11;;;;;;;0.00;0.00;;;;;;;6.14;71.87;98553.31;7364566;19;20019;-62
2024/02/24 06:26:36;;;;;;;0.10;0.10;;;;;;;6.15;71.75;98561.03;7366501;19;20010;-63
2024/02/24 06:29:01;;;;;;;0.00;0.00;;;;;;;6.16;72.13;98567.91;7363032;19;20026;-62
2024/02/24 06:31:27;;;;;;;0.10;0.10;;;;;;;6.18;71.80;98565.22;7357301;19;20019;-62
2024/02/24 06:33:53;;;;;;;0.05;0.05;;;;;;;6.19;71.95;98566.94;7368448;19;20017;-62
2024/02/24 06:36:18;;;;;;;0.10;0.10;;;;;;;6.20;71.64;98573.81;7358918;19;20010;-62
2024/02/24 06:38:44;;;;;;;0.10;0.10;;;;;;;6.21;71.67;98578.09;7368108;19;20014;-62
2024/02/24 06:41:09;;;;;;;0.05;0.05;;;;;;;6.21;71.80;98586.69;7365389;19;20038;-62
2024/02/24 06:43:35;;;;;;;0.00;0.00;;;;;;;6.22;71.80;98593.56;7369172;19;20018;-62
2024/02/24 06:46:00;;;;;;;0.10;0.10;;;;;;;6.22;71.83;98595.31;7367184;19;20007;-62
2024/02/24 06:48:26;;;;;;;0.00;0.00;;;;;;;6.21;71.90;98602.25;7363507;19;20018;-62
2024/02/24 06:50:51;;;;;;;0.10;0.10;;;;;;;6.20;71.64;98599.72;7368431;19;20009;-62
2024/02/24 06:53:17;;;;;;;0.10;0.10;;;;;;;6.22;71.75;98600.50;7366718;19;20687;-62
2024/02/24 06:55:43;;;;;;;0.03;0.03;;;;;;;6.22;71.79;98609.13;7365409;19;20006;-62
2024/02/24 06:58:08;;;;;;;0.00;0.00;;;;;;;6.21;72.09;98610.03;7361145;19;20826;-62
2024/02/24 07:00:35;;;;;;;0.10;0.10;;;;;;;6.22;71.71;98622.06;7369553;19;20090;-62
2024/02/24 07:03:00;;;;;;;0.10;0.10;;;;;;;6.21;71.76;98622.97;7362921;19;20018;-62
2024/02/24 07:05:25;;;;;;;0.10;0.10;;;;;;;6.21;71.82;98622.13;7366907;19;20783;-62
2024/02/24 07:07:51;;;;;;;0.10;0.10;;;;;;;6.23;71.92;98625.50;7361055;19;20022;-62
2024/02/24 07:10:17;;;;;;;0.03;0.03;;;;;;;6.23;72.16;98628.09;7356456;19;20023;-61
2024/02/24 07:12:43;;;;;;;0.10;0.10;;;;;;;6.22;72.18;98635.03;7365067;19;20455;-62
2024/02/24 07:15:08;;;;;;;0.10;0.10;;;;;;;6.25;71.96;98647.03;7365466;19;20427;-62
2024/02/24 07:17:34;;;;;;;0.00;0.00;;;;;;;6.25;72.30;98639.28;7357797;19;20847;-62
2024/02/24 07:19:59;;;;;;;0.00;0.00;;;;;;;6.26;72.03;98650.47;7361420;19;20018;-62
2024/02/24 07:22:24;;;;;;;0.10;0.10;;;;;;;6.27;72.33;98653.00;7364352;19;20035;-62
2024/02/24 07:24:50;;;;;;;0.00;0.00;;;;;;;6.28;72.48;98657.28;7365259;19;20003;-63
2024/02/24 07:27:15;;;;;;;0.10;0.10;;;;;;;6.30;71.93;98663.25;7362961;19;20021;-62
2024/02/24 07:29:41;;;;;;;0.10;0.10;;;;;;;6.32;71.81;98681.34;7360396;19;20014;-63
2024/02/24 07:32:06;;;;;;;0.10;0.10;;;;;;;6.32;72.08;98682.19;7367164;19;20097;-62
2024/02/24 07:34:33;;;;;;;0.10;0.10;;;;;;;5.97;72.18;98632.50;7362644;19;20016;-62
2024/02/24 07:36:59;;;;;;;0.10;0.10;;;;;;;6.32;71.78;98702.91;7365430;19;20015;-62
2024/02/24 07:39:25;;;;;;;0.00;0.00;;;;;;;6.32;71.79;98702.91;7360622;19;20014;-62
2024/02/24 07:41:50;;;;;;;0.10;0.10;;;;;;;6.30;71.73;98709.91;7364633;19;20021;-62
2024/02/24 07:44:16;;;;;;;0.10;0.10;;;;;;;6.31;71.72;98711.59;7361705;19;20010;-62
2024/02/24 07:46:41;;;;;;;0.00;0.00;;;;;;;6.30;72.19;98712.50;7364337;19;21547;-62
2024/02/24 07:49:07;;;;;;;0.10;0.10;;;;;;;6.28;72.05;98711.72;7362198;19;20058;-62
2024/02/24 07:51:32;;;;;;;0.10;0.10;;;;;;;6.29;72.29;98715.16;7365108;19;20750;-62
2024/02/24 07:53:58;;;;;;;0.10;0.10;;;;;;;6.32;71.70;98720.22;7364946;19;20053;-62
2024/02/24 07:56:24;;;;;;;0.10;0.10;;;;;;;6.32;71.85;98734.03;7363367;19;21919;-62
2024/02/24 07:58:50;;;;;;;0.10;0.10;;;;;;;6.32;71.86;98739.22;7362955;19;20018;-62
2024/02/24 08:01:16;;;;;;;0.08;0.08;;;;;;;6.33;71.59;98751.25;7359395;19;20014;-62
2024/02/24 08:03:42;;;;;;;0.10;0.10;;;;;;;6.33;71.57;98751.25;7361379;19;20029;-61
2024/02/24 08:06:07;;;;;;;0.10;0.10;;;;;;;6.33;71.69;98748.66;7361009;19;20007;-62
2024/02/24 08:08:39;;;;;;;0.00;0.00;;;;;;;6.32;71.67;98757.34;7365349;19;20010;-62
2024/02/24 08:11:04;;;;;;;0.10;0.10;;;;;;;6.33;71.72;98756.44;7360097;19;20497;-62
2024/02/24 08:13:30;;;;;;;0.10;0.10;;;;;;;6.33;71.71;98751.25;7362434;19;20007;-62
2024/02/24 08:16:00;;;;;;;0.10;0.10;;;;;;;6.22;72.00;98738.69;7364989;19;20888;-62
2024/02/24 08:18:25;;;;;;;0.10;0.10;;;;;;;6.35;71.55;98769.38;7361127;19;20833;-62
2024/02/24 08:20:51;;;;;;;0.00;0.00;;;;;;;6.33;71.92;98766.81;7364674;19;20014;-62
2024/02/24 08:23:16;;;;;;;0.10;0.10;;;;;;;6.35;71.63;98769.38;7362971;19;20017;-62
2024/02/24 08:25:42;;;;;;;0.10;0.10;;;;;;;6.37;71.64;98775.34;7365316;19;20019;-62
2024/02/24 08:28:07;;;;;;;0.10;0.10;;;;;;;6.25;72.16;98763.69;7359288;19;20102;-62
2024/02/24 08:30:33;;;;;;;0.10;0.10;;;;;;;6.38;71.73;98779.63;7361139;19;20014;-63
2024/02/24 08:32:58;;;;;;;0.10;0.10;;;;;;;6.39;71.66;98783.94;7359605;19;20015;-63
2024/02/24 08:35:24;;;;;;;0.10;0.10;;;;;;;6.40;71.66;98786.44;7365017;19;20066;-62
2024/02/24 08:37:49;;;;;;;0.10;0.10;;;;;;;6.42;71.42;98791.56;7362208;19;20003;-62
2024/02/24 08:40:15;;;;;;;0.10;0.10;;;;;;;6.43;71.83;98793.25;7362373;19;20769;-64
2024/02/24 08:42:40;;;;;;;0.05;0.05;;;;;;;6.43;71.33;98794.09;7362421;19;20007;-62
2024/02/24 08:45:06;;;;;;;0.10;0.10;;;;;;;6.43;71.60;98796.69;7359910;19;20018;-62
2024/02/24 08:47:31;;;;;;;0.10;0.10;;;;;;;6.42;71.85;98795.00;7362919;19;20425;-62
2024/02/24 08:49:57;;;;;;;0.10;0.10;;;;;;;6.43;71.27;98794.09;7363746;19;20011;-64
2024/02/24 08:52:23;;;;;;;0.10;0.10;;;;;;;6.45;71.62;98794.91;7370567;19;20050;-62
2024/02/24 08:54:49;;;;;;;0.08;0.08;;;;;;;6.45;71.74;98792.31;7370704;19;20041;-62
2024/02/24 08:57:14;;;;;;;0.03;0.03;;;;;;;6.45;71.75;98794.91;7372451;19;20422;-62
2024/02/24 08:59:40;;;;;;;0.00;0.00;;;;;;;6.48;71.37;98805.16;7351365;19;20049;-62
2024/02/24 09:02:06;;;;;;;0.00;0.00;;;;;;;6.49;71.63;98804.28;7342383;19;20031;-62
2024/02/24 09:04:31;;;;;;;0.10;0.10;;;;;;;6.52;71.55;98802.44;7366973;19;20014;-62
2024/02/24 09:06:56;;;;;;;0.10;0.10;;;;;;;6.52;71.62;98797.28;7369007;19;20007;-62
2024/02/24 09:09:22;;;;;;;0.10;0.10;;;;;;;6.55;71.21;98786.78;7369071;19;20525;-62
2024/02/24 09:11:49;;;;;;;0.10;0.10;;;;;;;6.56;71.38;98791.06;7368925;19;20006;-62
2024/02/24 09:14:15;;;;;;;0.00;0.00;;;;;;;6.59;71.63;98793.53;7371261;19;20032;-62
2024/02/24 09:16:41;;;;;;;0.10;0.10;;;;;;;6.60;71.51;98793.50;7362102;19;20592;-63
2024/02/24 09:19:06;;;;;;;0.10;0.10;;;;;;;6.65;71.55;98798.53;7366636;19;20024;-62
2024/02/24 09:21:31;;;;;;;0.10;0.10;;;;;;;6.65;71.47;98793.34;7364712;19;20014;-64
2024/02/24 09:23:57;;;;;;;0.10;0.10;;;;;;;6.70;71.43;98804.38;7372160;19;20795;-62
2024/02/24 09:26:23;;;;;;;0.00;0.00;;;;;;;6.75;71.55;98810.25;7366057;19;20369;-62
2024/02/24 09:28:49;;;;;;;0.03;0.03;;;;;;;6.78;71.54;98804.91;7366315;19;20035;-62
2024/02/24 09:31:14;;;;;;;0.10;0.10;;;;;;;6.82;71.12;98816.03;7352048;19;20018;-63
2024/02/24 09:33:39;;;;;;;0.10;0.10;;;;;;;6.83;71.05;98818.56;7365571;19;20028;-62
2024/02/24 09:36:06;;;;;;;0.10;0.10;;;;;;;6.88;71.40;98815.78;7364299;19;20029;-62
2024/02/24 09:38:31;;;;;;;0.10;0.10;;;;;;;6.90;71.18;98817.44;7367670;19;20007;-62
2024/02/24 09:40:57;;;;;;;0.10;0.10;;;;;;;6.94;71.30;98821.59;7367683;19;20006;-62
2024/02/24 09:43:22;;;;;;;0.10;0.10;;;;;;;6.98;70.89;98823.16;7367760;19;20420;-62
2024/02/24 09:45:48;;;;;;;0.00;0.00;;;;;;;6.90;71.12;98801.88;7367665;19;20663;-62
2024/02/24 09:48:15;;;;;;;0.10;0.10;;;;;;;7.07;71.00;98821.13;7368983;19;20302;-62
2024/02/24 09:50:40;;;;;;;0.10;0.10;;;;;;;7.12;70.99;98819.22;7365768;19;20027;-62
2024/02/24 09:53:07;;;;;;;0.00;0.00;;;;;;;7.12;71.24;98801.88;7358801;19;20006;-62
2024/02/24 09:55:32;;;;;;;0.10;0.10;;;;;;;7.25;71.28;98833.41;7343316;19;20395;-62
2024/02/24 09:57:59;;;;;;;0.05;0.05;;;;;;;7.30;70.91;98841.88;7367203;19;20022;-62
2024/02/24 10:00:25;;;;;;;0.00;0.00;;;;;;;7.33;70.80;98849.53;7363566;19;20532;-63
2024/02/24 10:02:50;;;;;;;0.10;0.10;;;;;;;7.36;71.07;98857.22;7355033;19;20090;-63
2024/02/24 10:05:16;;;;;;;0.10;0.10;;;;;;;7.20;70.52;98822.38;7368495;19;20419;-62
2024/02/24 10:07:43;;;;;;;0.10;0.10;;;;;;;7.42;70.49;98859.56;7368397;19;20020;-62
2024/02/24 10:10:10;;;;;;;0.08;0.08;;;;;;;7.46;70.93;98855.09;7369141;19;20482;-62
2024/02/24 10:12:36;;;;;;;0.00;0.00;;;;;;;7.48;70.84;98859.31;7369922;19;20018;-62
2024/02/24 10:15:01;;;;;;;0.10;0.10;;;;;;;7.47;70.70;98852.44;7368134;19;20008;-62
2024/02/24 10:17:30;;;;;;;0.10;0.10;;;;;;;7.56;70.38;98872.00;7369346;19;20030;-62
2024/02/24 10:19:56;;;;;;;0.10;0.10;;;;;;;7.56;70.77;98871.16;7359800;19;20477;-63
2024/02/24 10:22:21;;;;;;;0.10;0.10;;;;;;;7.58;70.95;98869.34;7366562;19;20014;-62
2024/02/24 10:24:47;;;;;;;0.10;0.10;;;;;;;7.62;70.81;98876.94;7366326;19;20034;-62
2024/02/24 10:27:15;;;;;;;0.10;0.10;;;;;;;7.68;70.55;98875.84;7361639;19;20101;-62
2024/02/24 10:29:41;;;;;;;0.10;0.10;;;;;;;7.72;70.58;98882.63;7367223;19;20018;-62
2024/02/24 10:32:07;;;;;;;0.10;0.10;;;;;;;7.77;70.52;98889.31;7363147;19;20711;-62
2024/02/24 10:34:33;;;;;;;0.10;0.10;;;;;;;7.83;70.51;98890.81;7361070;19;20025;-62
2024/02/24 10:37:03;;;;;;;0.10;0.10;;;;;;;7.77;70.11;98871.13;7364730;19;20082;-62
2024/02/24 10:39:33;;;;;;;0.10;0.10;;;;;;;7.88;70.32;98881.09;7368887;19;20740;-62
2024/02/24 10:41:59;;;;;;;0.10;0.10;;;;;;;7.89;70.26;98884.53;7368255;19;20018;-63
2024/02/24 10:44:26;;;;;;;0.00;0.00;;;;;;;7.98;70.44;98895.41;7363198;19;20461;-62
2024/02/24 10:46:51;;;;;;;0.10;0.10;;;;;;;7.94;70.38;98877.38;7358009;19;20017;-62
2024/02/24 10:49:17;;;;;;;0.10;0.10;;;;;;;8.09;70.01;98899.31;7367230;19;20038;-62
2024/02/24 10:51:46;;;;;;;0.10;0.10;;;;;;;8.02;70.29;98896.97;7366600;19;20793;-62
2024/02/24 10:54:17;;;;;;;0.08;0.08;;;;;;;8.22;70.23;98905.69;7361467;19;20570;-62
2024/02/24 10:56:43;;;;;;;0.10;0.10;;;;;;;8.26;69.90;98909.84;7365628;19;20331;-62
2024/02/24 10:59:09;;;;;;;0.10;0.10;;;;;;;8.32;69.99;98914.81;7364319;19;20513;-62
2024/02/24 11:02:05;;;;;;;0.10;0.10;;;;;;;8.42;69.78;98931.75;7368999;19;20025;-62
2024/02/24 11:04:36;;;;;;;0.00;0.00;;;;;;;8.44;69.76;98932.50;7363582;19;20092;-62
2024/02/24 11:07:03;;;;;;;0.10;0.10;;;;;;;8.44;69.60;98940.31;7362161;19;20014;-62
2024/02/24 11:09:33;;;;;;;0.10;0.10;;;;;;;8.49;69.58;98951.38;7363095;19;20035;-62
2024/02/24 11:12:20;;;;;;;0.10;0.10;;;;;;;8.51;69.88;98946.94;7356199;19;20014;-62
2024/02/24 11:14:49;;;;;;;0.00;0.00;;;;;;;8.58;69.72;98961.41;7364970;19;20014;-62
2024/02/24 11:17:51;;;;;;;0.10;0.10;;;;;;;8.63;69.89;98953.41;7356502;19;20029;-62
2024/02/24 11:20:37;;;;;;;0.10;0.10;;;;;;;8.69;69.68;98957.50;7360306;19;20078;-63
2024/02/24 11:23:25;;;;;;;0.10;0.10;;;;;;;8.71;69.73;98945.25;7359453;19;20018;-62
2024/02/24 11:26:09;;;;;;;0.10;0.10;;;;;;;8.74;69.84;98945.97;7360535;19;20370;-63
2024/02/24 11:28:35;;;;;;;0.10;0.10;;;;;;;8.75;69.40;98946.81;7361243;19;20337;-62
2024/02/24 11:31:02;;;;;;;0.00;0.00;;;;;;;8.82;69.38;98956.91;7352963;19;20026;-63
2024/02/24 11:33:29;;;;;;;0.00;0.00;;;;;;;8.84;69.08;98959.44;7366124;19;20099;-63
2024/02/24 11:35:55;;;;;;;0.03;0.03;;;;;;;8.93;68.90;98969.44;7357195;19;19998;-62